Time;durP1;ratioP1;P1;durP2;ratioP2;P2;SDS_P1;SDS_P2;PMS_P1;PMS_P2;Temp;Humidity;BMP_temperature;BMP_pressure;BME280_temperature;BME280_humidity;BME280_pressure;Samples;Min_cycle;Max_cycle;Signal;HPM_P1;HPM_P2
2023/06/21 06:05:56;;;;;;;9.03;5.40;;;;;;;;;;12738890;22;1532749;-86
2023/06/21 06:10:58;;;;;;;7.90;5.15;;;;;;;;;;12697145;23;20014;-85
2023/06/21 06:15:59;;;;;;;7.20;4.95;;;;;;;;;;12696837;23;20016;-86
2023/06/21 06:21:00;;;;;;;11.35;7.35;;;;;;;;;;12697086;23;20018;-82
2023/06/21 06:26:01;;;;;;;9.07;7.00;;;;;;;;;;12681185;23;20006;-83
2023/06/21 06:31:07;;;;;;;9.25;8.30;;;;;;;;;;12689098;23;20010;-83
2023/06/21 06:36:08;;;;;;;6.65;5.53;;;;;;;;;;12680437;23;20010;-83
2023/06/21 06:46:29;;;;;;;11.30;9.27;;;;;;;;;;12703853;23;20018;-84
2023/06/21 06:51:33;;;;;;;12.15;10.95;;;;;;;;;;12680404;23;20025;-84
2023/06/21 06:56:35;;;;;;;10.75;8.80;;;;;;;;;;12681381;23;20434;-84
2023/06/21 07:01:37;;;;;;;11.85;9.85;;;;;;;;;;12646307;23;20033;-84
2023/06/21 07:06:38;;;;;;;9.43;5.63;;;;;;;;;;12663593;23;20010;-79
2023/06/21 07:11:39;;;;;;;8.80;7.63;;;;;;;;;;12659199;23;20017;-82
2023/06/21 07:16:44;;;;;;;14.52;13.02;;;;;;;;;;12664796;23;20005;-83
2023/06/21 07:21:45;;;;;;;16.90;15.25;;;;;;;;;;12672603;23;20010;-82
2023/06/21 07:26:46;;;;;;;18.88;17.02;;;;;;;;;;12670349;23;20013;-82
2023/06/21 07:31:48;;;;;;;17.35;15.75;;;;;;;;;;12671723;23;20006;-82
2023/06/21 07:36:49;;;;;;;23.42;21.27;;;;;;;;;;12674269;23;20010;-81
2023/06/21 07:41:54;;;;;;;22.25;20.05;;;;;;;;;;12672606;23;20002;-85
2023/06/21 07:46:55;;;;;;;19.33;17.42;;;;;;;;;;12674559;23;20312;-85
2023/06/21 07:51:57;;;;;;;20.88;18.88;;;;;;;;;;12672904;23;20081;-84
2023/06/21 07:56:57;;;;;;;24.33;21.92;;;;;;;;;;12670326;23;20430;-83
2023/06/21 08:01:58;;;;;;;19.60;17.60;;;;;;;;;;12668552;23;20013;-83
2023/06/21 08:06:59;;;;;;;19.70;17.67;;;;;;;;;;12667889;23;20010;-82
2023/06/21 08:12:00;;;;;;;19.33;16.33;;;;;;;;;;12668526;23;20009;-82
2023/06/21 08:17:02;;;;;;;17.70;16.15;;;;;;;;;;12694403;23;20006;-82
2023/06/21 08:22:03;;;;;;;16.73;15.10;;;;;;;;;;12666712;23;20020;-82
2023/06/21 08:27:04;;;;;;;16.98;15.32;;;;;;;;;;12667609;23;20002;-84
2023/06/21 08:32:05;;;;;;;15.88;14.50;;;;;;;;;;12665677;23;20006;-82
2023/06/21 08:37:06;;;;;;;14.50;13.30;;;;;;;;;;12663783;23;20002;-82
2023/06/21 08:42:08;;;;;;;16.50;14.80;;;;;;;;;;12667529;23;20292;-81
2023/06/21 08:47:09;;;;;;;15.35;13.85;;;;;;;;;;12666257;23;20057;-82
2023/06/21 08:52:12;;;;;;;15.20;13.70;;;;;;;;;;12693886;23;20176;-82
2023/06/21 08:57:23;;;;;;;15.32;13.82;;;;;;;;;;12668628;23;20010;-82
2023/06/21 09:02:30;;;;;;;15.55;14.25;;;;;;;;;;12666912;23;20002;-81
2023/06/21 09:07:33;;;;;;;15.00;13.50;;;;;;;;;;12669174;23;20002;-82
2023/06/21 09:12:36;;;;;;;13.32;12.02;;;;;;;;;;12692989;23;20458;-81
2023/06/21 09:17:37;;;;;;;13.77;12.57;;;;;;;;;;12669144;23;20073;-81
2023/06/21 09:22:39;;;;;;;13.27;12.05;;;;;;;;;;12668090;23;20079;-82
2023/06/21 09:27:40;;;;;;;11.90;10.90;;;;;;;;;;12664945;23;20009;-79
2023/06/21 09:32:42;;;;;;;11.55;10.00;;;;;;;;;;12662470;23;20032;-80
2023/06/21 09:37:44;;;;;;;13.38;11.90;;;;;;;;;;12665456;23;20028;-80
2023/06/21 09:42:46;;;;;;;10.90;10.00;;;;;;;;;;12667956;23;20001;-82
2023/06/21 09:47:48;;;;;;;10.50;8.48;;;;;;;;;;12666611;23;20437;-81
2023/06/21 09:52:49;;;;;;;10.63;9.73;;;;;;;;;;12693234;23;20012;-80
2023/06/21 09:57:53;;;;;;;9.45;8.55;;;;;;;;;;12694395;23;20028;-82
2023/06/21 10:02:54;;;;;;;8.57;7.68;;;;;;;;;;12669436;23;20092;-83
2023/06/21 10:07:55;;;;;;;6.60;5.90;;;;;;;;;;12667702;23;20125;-81
2023/06/21 10:12:57;;;;;;;6.97;6.30;;;;;;;;;;12668354;23;20012;-82
2023/06/21 10:17:59;;;;;;;6.70;6.10;;;;;;;;;;12664371;23;20044;-79
2023/06/21 10:23:01;;;;;;;7.57;6.20;;;;;;;;;;12660330;23;20038;-80
2023/06/21 10:28:03;;;;;;;8.82;7.15;;;;;;;;;;12679430;23;20090;-78
2023/06/21 10:33:04;;;;;;;9.88;8.95;;;;;;;;;;12681393;23;20071;-81
2023/06/21 10:38:05;;;;;;;11.20;10.10;;;;;;;;;;12682244;23;20068;-82
2023/06/21 10:43:07;;;;;;;10.90;9.80;;;;;;;;;;12692910;23;19998;-80
2023/06/21 10:48:09;;;;;;;11.40;9.73;;;;;;;;;;12666958;23;20434;-80
2023/06/21 10:53:11;;;;;;;9.50;8.60;;;;;;;;;;12666294;23;20038;-81
2023/06/21 10:58:15;;;;;;;10.18;9.27;;;;;;;;;;12666950;23;20017;-81
2023/06/21 11:03:23;;;;;;;12.65;9.68;;;;;;;;;;12692493;23;20427;-81
2023/06/21 11:08:31;;;;;;;11.18;9.95;;;;;;;;;;12668742;23;20387;-81
2023/06/21 11:13:35;;;;;;;7.82;7.10;;;;;;;;;;12668581;23;20014;-83
2023/06/21 11:18:36;;;;;;;8.35;7.65;;;;;;;;;;12666348;23;20009;-81
2023/06/21 11:23:50;;;;;;;12.07;9.48;;;;;;;;;;12666632;23;20010;-81
2023/06/21 11:28:51;;;;;;;7.03;6.40;;;;;;;;;;12666648;23;20013;-80
2023/06/21 11:33:54;;;;;;;7.75;6.57;;;;;;;;;;12666343;23;20017;-81
2023/06/21 11:38:59;;;;;;;7.00;6.40;;;;;;;;;;12666744;23;20022;-80
2023/06/21 11:44:00;;;;;;;7.03;6.32;;;;;;;;;;12665986;23;20096;-80
2023/06/21 11:49:01;;;;;;;6.60;6.03;;;;;;;;;;12666457;23;20014;-80
2023/06/21 11:54:06;;;;;;;7.72;7.03;;;;;;;;;;12666390;23;20089;-81
2023/06/21 11:59:08;;;;;;;6.15;5.55;;;;;;;;;;12670941;23;20021;-81
2023/06/21 12:04:09;;;;;;;5.75;4.20;;;;;;;;;;12666275;23;20026;-81
2023/06/21 12:09:10;;;;;;;5.10;4.70;;;;;;;;;;12668224;23;20447;-81
2023/06/21 12:14:11;;;;;;;6.60;5.63;;;;;;;;;;12668885;23;20029;-82
2023/06/21 12:19:12;;;;;;;6.38;5.65;;;;;;;;;;12668800;23;20064;-81
2023/06/21 12:24:13;;;;;;;7.50;6.07;;;;;;;;;;12673221;23;20057;-81
2023/06/21 12:29:14;;;;;;;6.75;5.82;;;;;;;;;;12673721;23;20026;-82
2023/06/21 12:34:16;;;;;;;6.20;5.50;;;;;;;;;;12670952;23;20057;-82
2023/06/21 12:39:18;;;;;;;7.05;6.35;;;;;;;;;;12673580;23;20006;-81
2023/06/21 12:44:20;;;;;;;6.97;6.38;;;;;;;;;;12672085;23;20442;-81
2023/06/21 12:49:21;;;;;;;8.52;7.72;;;;;;;;;;12672948;23;20068;-81
2023/06/21 12:54:22;;;;;;;5.80;5.20;;;;;;;;;;12670388;23;20020;-79
2023/06/21 12:59:24;;;;;;;5.20;4.70;;;;;;;;;;12667487;23;20025;-79
2023/06/21 13:04:25;;;;;;;5.47;4.97;;;;;;;;;;12671167;23;20055;-80
2023/06/21 13:09:26;;;;;;;4.95;4.55;;;;;;;;;;12666742;23;20089;-79
2023/06/21 13:14:27;;;;;;;6.07;5.25;;;;;;;;;;12664640;23;20009;-80
2023/06/21 13:19:28;;;;;;;12.50;11.30;;;;;;;;;;12668981;23;20010;-80
2023/06/21 13:24:29;;;;;;;8.57;7.63;;;;;;;;;;12665064;23;20065;-80
2023/06/21 13:29:30;;;;;;;5.07;4.68;;;;;;;;;;12666636;23;20064;-81
2023/06/21 13:34:31;;;;;;;5.72;4.75;;;;;;;;;;12665304;23;20017;-80
2023/06/21 13:39:33;;;;;;;6.43;4.72;;;;;;;;;;12666708;23;20002;-80
2023/06/21 13:44:34;;;;;;;5.53;4.22;;;;;;;;;;12671017;23;20009;-80
2023/06/21 13:49:36;;;;;;;4.80;4.30;;;;;;;;;;12673180;23;20013;-80
2023/06/21 13:54:39;;;;;;;4.93;4.30;;;;;;;;;;12671462;23;20006;-80
2023/06/21 13:59:40;;;;;;;4.50;4.10;;;;;;;;;;12675247;23;20036;-81
2023/06/21 14:04:43;;;;;;;5.30;4.18;;;;;;;;;;12674910;23;20006;-80
2023/06/21 14:09:45;;;;;;;4.40;4.00;;;;;;;;;;12673611;23;20521;-80
2023/06/21 14:14:46;;;;;;;5.38;4.32;;;;;;;;;;12670846;23;20035;-79
2023/06/21 14:19:47;;;;;;;14.38;12.93;;;;;;;;;;12668195;23;20006;-80
2023/06/21 14:24:48;;;;;;;7.85;4.50;;;;;;;;;;12672332;23;20014;-81
2023/06/21 14:29:49;;;;;;;5.07;4.50;;;;;;;;;;12678408;23;20006;-80
2023/06/21 14:34:50;;;;;;;5.85;4.68;;;;;;;;;;12680382;23;20010;-81
2023/06/21 14:39:51;;;;;;;6.63;5.50;;;;;;;;;;12680573;23;20006;-81
2023/06/21 14:44:52;;;;;;;5.38;4.85;;;;;;;;;;12679959;23;20002;-82
2023/06/21 14:49:54;;;;;;;5.50;5.00;;;;;;;;;;12681457;23;20017;-81
2023/06/21 14:54:55;;;;;;;5.55;5.05;;;;;;;;;;12678920;23;20469;-83
2023/06/21 14:59:57;;;;;;;6.05;5.45;;;;;;;;;;12678851;23;20021;-81
2023/06/21 15:04:58;;;;;;;4.70;4.30;;;;;;;;;;12678442;23;20030;-83
2023/06/21 15:09:59;;;;;;;5.43;4.70;;;;;;;;;;12673695;23;20342;-83
2023/06/21 15:15:00;;;;;;;4.70;4.30;;;;;;;;;;12668936;23;20017;-82
2023/06/21 15:20:02;;;;;;;10.77;9.73;;;;;;;;;;12673259;23;20316;-82
2023/06/21 15:25:03;;;;;;;5.10;4.60;;;;;;;;;;12674857;23;20017;-82
2023/06/21 15:30:04;;;;;;;7.03;4.72;;;;;;;;;;12678664;23;20347;-81
2023/06/21 15:35:05;;;;;;;5.45;4.95;;;;;;;;;;12671027;23;20014;-80
2023/06/21 15:40:11;;;;;;;5.25;4.75;;;;;;;;;;12673548;23;20097;-81
2023/06/21 15:45:12;;;;;;;5.93;4.97;;;;;;;;;;12667957;23;19998;-80
2023/06/21 15:50:13;;;;;;;5.93;5.15;;;;;;;;;;12667860;23;20014;-80
2023/06/21 15:55:14;;;;;;;18.02;16.20;;;;;;;;;;12661796;23;20042;-80
2023/06/21 16:00:16;;;;;;;5.30;4.80;;;;;;;;;;12659918;23;20398;-80
2023/06/21 16:05:17;;;;;;;4.97;4.57;;;;;;;;;;12661374;23;20063;-81
2023/06/21 16:10:18;;;;;;;5.32;4.82;;;;;;;;;;12686381;23;20002;-82
2023/06/21 16:20:51;;;;;;;5.50;5.00;;;;;;;;;;12686292;23;20022;-79
2023/06/21 16:25:53;;;;;;;6.10;4.68;;;;;;;;;;12659985;23;20009;-80
2023/06/21 16:30:54;;;;;;;5.95;4.50;;;;;;;;;;12661073;23;20035;-82
2023/06/21 16:35:55;;;;;;;6.63;5.20;;;;;;;;;;12666221;23;20017;-83
2023/06/21 16:40:57;;;;;;;5.35;4.72;;;;;;;;;;12666774;23;19998;-83
2023/06/21 16:45:59;;;;;;;5.38;4.88;;;;;;;;;;12664070;23;20070;-83
2023/06/21 16:51:03;;;;;;;4.90;4.40;;;;;;;;;;12669582;23;19997;-83
2023/06/21 16:56:04;;;;;;;5.10;4.28;;;;;;;;;;12671369;23;20006;-84
2023/06/21 17:01:07;;;;;;;4.45;4.05;;;;;;;;;;12688331;23;20073;-83
2023/06/21 17:06:23;;;;;;;4.32;3.88;;;;;;;;;;12661077;23;20010;-82
2023/06/21 17:11:38;;;;;;;5.30;4.00;;;;;;;;;;12660498;23;20029;-83
2023/06/21 17:17:40;;;;;;;4.80;4.15;;;;;;;;;;12683917;23;20064;-83
2023/06/21 17:45:43;;;;;;;5.03;3.13;;;;;;;;;;12579255;23;20073;-84
2023/06/21 17:50:47;;;;;;;3.50;3.20;;;;;;;;;;12686862;23;20346;-84
2023/06/21 17:55:57;;;;;;;3.92;3.35;;;;;;;;;;12694870;23;20005;-84
2023/06/21 18:00:59;;;;;;;3.65;3.33;;;;;;;;;;12669276;23;19998;-83
2023/06/21 18:06:06;;;;;;;4.03;2.92;;;;;;;;;;12660647;23;20006;-83
2023/06/21 18:11:09;;;;;;;3.80;3.10;;;;;;;;;;12660011;23;20073;-84
2023/06/21 18:16:12;;;;;;;3.97;3.00;;;;;;;;;;12658665;23;20334;-84
2023/06/21 18:21:15;;;;;;;4.68;3.30;;;;;;;;;;12663812;23;20070;-86
2023/06/21 18:26:37;;;;;;;3.53;2.90;;;;;;;;;;12658458;23;20060;-85
2023/06/21 18:42:24;;;;;;;3.42;2.88;;;;;;;;;;12694477;23;19957;-85
2023/06/21 18:47:25;;;;;;;4.18;3.00;;;;;;;;;;12652245;23;20006;-85
2023/06/21 18:52:42;;;;;;;6.53;3.17;;;;;;;;;;12667566;23;20006;-86
2023/06/21 18:57:44;;;;;;;5.60;2.80;;;;;;;;;;12675567;23;20085;-85
2023/06/21 19:02:46;;;;;;;3.65;3.15;;;;;;;;;;12696562;23;20009;-85
2023/06/21 19:07:49;;;;;;;3.67;3.03;;;;;;;;;;12669006;23;20006;-86
2023/06/21 19:12:50;;;;;;;6.05;4.22;;;;;;;;;;12667247;23;20029;-86
